Time;durP1;ratioP1;P1;durP2;ratioP2;P2;SDS_P1;SDS_P2;PMS_P1;PMS_P2;Temp;Humidity;BMP_temperature;BMP_pressure;BME280_temperature;BME280_humidity;BME280_pressure;Samples;Min_cycle;Max_cycle;Signal;HPM_P1;HPM_P2
2021/12/06 00:01:30;;;;;;;17.17;10.73;;;;;4.40;100490.00;;;;4991240;28;20656;-71
2021/12/06 00:04:20;;;;;;;19.17;11.07;;;;;4.40;100496.00;;;;5013448;28;20322;-71
2021/12/06 00:07:10;;;;;;;18.83;10.90;;;;;4.30;100492.00;;;;5000973;28;20993;-69
2021/12/06 00:09:58;;;;;;;16.83;10.80;;;;;4.30;100500.00;;;;5014596;28;20328;-70
2021/12/06 00:12:44;;;;;;;19.20;11.23;;;;;4.30;100505.00;;;;5010645;28;20689;-70
2021/12/06 00:15:33;;;;;;;18.87;12.07;;;;;4.30;100498.00;;;;5016513;28;20237;-72
2021/12/06 00:18:19;;;;;;;17.63;11.23;;;;;4.30;100490.00;;;;4998250;28;20239;-73
2021/12/06 00:21:06;;;;;;;14.60;10.80;;;;;4.30;100502.00;;;;5001628;28;20203;-71
2021/12/06 00:23:53;;;;;;;16.70;10.17;;;;;4.20;100497.00;;;;5001824;28;20210;-70
2021/12/06 00:26:40;;;;;;;20.00;11.23;;;;;4.20;100500.00;;;;4998066;28;20230;-70
2021/12/06 00:29:27;;;;;;;20.27;11.87;;;;;4.10;100498.00;;;;4992772;28;20310;-70
2021/12/06 00:32:13;;;;;;;19.77;11.20;;;;;3.90;100506.00;;;;4993288;28;20274;-71
2021/12/06 00:34:59;;;;;;;15.73;10.63;;;;;4.00;100511.00;;;;4995975;28;20830;-71
2021/12/06 00:37:55;;;;;;;17.07;10.33;;;;;4.00;100512.00;;;;5005559;28;20700;-70
2021/12/06 00:40:45;;;;;;;20.43;11.03;;;;;4.00;100523.00;;;;5025376;28;20204;-70
2021/12/06 00:43:33;;;;;;;16.17;11.17;;;;;3.90;100522.00;;;;4996813;28;20203;-70
2021/12/06 00:46:20;;;;;;;17.20;11.70;;;;;3.90;100535.00;;;;5022217;28;20295;-70
2021/12/06 00:49:07;;;;;;;17.27;11.40;;;;;3.90;100515.00;;;;5013398;28;20230;-70
2021/12/06 00:51:53;;;;;;;16.83;11.17;;;;;3.90;100532.00;;;;5002649;28;20222;-70
2021/12/06 00:54:40;;;;;;;18.57;11.73;;;;;3.90;100536.00;;;;5008708;28;20252;-70
2021/12/06 00:57:26;;;;;;;17.33;11.80;;;;;3.90;100540.00;;;;5019657;28;20233;-71
2021/12/06 01:00:19;;;;;;;16.90;11.73;;;;;3.90;100540.00;;;;5021557;28;20248;-71
2021/12/06 01:03:09;;;;;;;22.30;12.00;;;;;3.90;100538.00;;;;5015082;28;20991;-72
2021/12/06 01:05:55;;;;;;;20.37;12.17;;;;;3.80;100541.00;;;;5011472;28;20245;-71
2021/12/06 01:08:43;;;;;;;16.97;10.73;;;;;3.80;100544.00;;;;5023406;28;20273;-70
2021/12/06 01:11:29;;;;;;;17.37;10.60;;;;;3.80;100550.00;;;;5017251;28;20221;-71
2021/12/06 01:14:15;;;;;;;14.40;10.03;;;;;3.70;100557.00;;;;5020275;28;20248;-70
2021/12/06 01:17:03;;;;;;;18.63;11.73;;;;;3.70;100560.00;;;;5007974;28;20272;-71
2021/12/06 01:19:50;;;;;;;17.73;10.80;;;;;3.70;100570.00;;;;5020950;28;20217;-72
2021/12/06 01:22:44;;;;;;;15.10;9.93;;;;;3.70;100578.00;;;;5019025;28;20288;-71
2021/12/06 01:25:37;;;;;;;15.43;10.13;;;;;3.50;100575.00;;;;5018232;28;20268;-71
2021/12/06 01:31:42;;;;;;;17.23;9.73;;;;;3.50;100586.00;;;;5008724;28;20752;-72
2021/12/06 01:40:37;;;;;;;14.60;9.53;;;;;3.30;100600.00;;;;5019469;28;20213;-71
2021/12/06 01:43:24;;;;;;;19.63;10.37;;;;;3.40;100613.00;;;;5017399;28;20422;-71
2021/12/06 01:46:10;;;;;;;18.50;10.53;;;;;3.40;100602.00;;;;5021561;28;20232;-70
2021/12/06 01:48:56;;;;;;;18.67;10.77;;;;;3.40;100609.00;;;;5013591;28;20225;-72
2021/12/06 01:51:46;;;;;;;16.87;10.30;;;;;3.40;100600.00;;;;5014115;28;20209;-71
2021/12/06 01:54:33;;;;;;;16.27;10.43;;;;;3.50;100608.00;;;;5021808;28;20217;-69
2021/12/06 01:57:20;;;;;;;17.13;11.50;;;;;3.40;100618.00;;;;5014635;28;20741;-70
2021/12/06 02:00:08;;;;;;;15.37;10.13;;;;;3.40;100615.00;;;;5019535;28;20581;-72
2021/12/06 02:02:55;;;;;;;17.57;10.83;;;;;3.40;100629.00;;;;5010918;28;20205;-71
2021/12/06 02:05:44;;;;;;;18.90;9.43;;;;;3.30;100635.00;;;;5019935;28;20279;-71
2021/12/06 02:08:32;;;;;;;16.57;10.63;;;;;3.30;100636.00;;;;5018372;28;20313;-71
2021/12/06 02:11:18;;;;;;;17.03;9.97;;;;;3.40;100643.00;;;;5013121;28;20225;-71
2021/12/06 02:14:20;;;;;;;15.87;10.33;;;;;3.40;100637.00;;;;5024675;28;20216;-70
2021/12/06 02:17:13;;;;;;;18.67;10.67;;;;;3.30;100616.00;;;;5013790;28;20276;-71
2021/12/06 02:20:05;;;;;;;16.20;10.97;;;;;3.30;100600.00;;;;4995492;28;20302;-71
2021/12/06 02:22:53;;;;;;;20.97;11.17;;;;;3.30;100614.00;;;;5009486;28;20823;-71
2021/12/06 02:25:40;;;;;;;16.57;11.30;;;;;3.20;100610.00;;;;5019417;28;20722;-71
2021/12/06 02:28:26;;;;;;;18.40;10.37;;;;;3.20;100611.00;;;;5019148;28;20214;-70
2021/12/06 02:31:14;;;;;;;16.50;10.30;;;;;3.00;100623.00;;;;5012887;28;20277;-71
2021/12/06 02:34:00;;;;;;;16.57;10.30;;;;;2.90;100621.00;;;;4999028;28;20265;-68
2021/12/06 02:36:47;;;;;;;16.47;10.37;;;;;2.90;100633.00;;;;5004476;28;20537;-70
2021/12/06 02:39:34;;;;;;;18.40;10.37;;;;;2.90;100629.00;;;;5015550;28;20289;-71
2021/12/06 02:42:21;;;;;;;17.03;10.13;;;;;2.80;100639.00;;;;5019252;28;20702;-71
2021/12/06 02:45:10;;;;;;;18.40;10.57;;;;;2.80;100640.00;;;;5017691;28;20202;-71
2021/12/06 02:47:59;;;;;;;17.63;9.53;;;;;2.70;100636.00;;;;5003290;28;20217;-71
2021/12/06 02:50:48;;;;;;;17.10;9.17;;;;;2.70;100635.00;;;;5019539;28;20228;-70
2021/12/06 02:53:36;;;;;;;16.70;9.87;;;;;2.50;100639.00;;;;5017482;28;20205;-71
2021/12/06 02:56:33;;;;;;;18.10;9.93;;;;;2.50;100630.00;;;;5021258;28;20990;-71
2021/12/06 02:59:22;;;;;;;15.40;9.13;;;;;2.50;100643.00;;;;5013575;28;20681;-71
2021/12/06 03:02:17;;;;;;;18.17;9.33;;;;;2.40;100644.00;;;;5019390;28;20206;-70
2021/12/06 03:05:05;;;;;;;16.83;10.03;;;;;2.40;100653.00;;;;5005499;28;20566;-70
2021/12/06 03:07:58;;;;;;;15.93;9.83;;;;;2.40;100655.00;;;;5013763;28;20211;-71
2021/12/06 03:10:44;;;;;;;13.70;8.20;;;;;2.40;100663.00;;;;5010413;28;20230;-72
2021/12/06 03:13:32;;;;;;;17.97;9.33;;;;;2.20;100673.00;;;;5015298;28;20206;-71
2021/12/06 03:16:19;;;;;;;16.83;9.83;;;;;2.20;100665.00;;;;5013254;28;20320;-71
2021/12/06 03:19:06;;;;;;;15.07;8.43;;;;;2.10;100681.00;;;;5019419;28;20374;-70
2021/12/06 03:21:53;;;;;;;17.20;8.80;;;;;2.20;100681.00;;;;5008781;28;20252;-71
2021/12/06 03:24:40;;;;;;;13.77;8.67;;;;;2.00;100682.00;;;;5017228;28;20217;-70
2021/12/06 03:27:26;;;;;;;15.83;9.50;;;;;2.00;100677.00;;;;5018450;28;20229;-71
2021/12/06 03:30:14;;;;;;;13.43;9.17;;;;;2.20;100682.00;;;;5022543;28;20276;-71
2021/12/06 03:33:00;;;;;;;13.53;8.50;;;;;2.00;100678.00;;;;5009205;28;20220;-72
2021/12/06 03:35:47;;;;;;;14.87;9.83;;;;;2.00;100666.00;;;;5012172;28;20225;-71
2021/12/06 03:38:33;;;;;;;17.20;9.57;;;;;2.00;100676.00;;;;5016169;28;20308;-70
2021/12/06 03:41:22;;;;;;;16.23;9.43;;;;;2.10;100684.00;;;;5017789;28;20218;-70
2021/12/06 03:44:09;;;;;;;19.10;9.00;;;;;2.20;100682.00;;;;5023167;28;20205;-71
2021/12/06 03:47:02;;;;;;;14.07;9.00;;;;;2.10;100688.00;;;;5022758;28;20237;-70
2021/12/06 03:49:48;;;;;;;13.87;8.83;;;;;2.00;100680.00;;;;5011827;28;20229;-70
2021/12/06 03:52:35;;;;;;;13.27;8.90;;;;;1.80;100689.00;;;;5023190;28;20673;-71
2021/12/06 03:55:22;;;;;;;14.87;8.83;;;;;1.80;100684.00;;;;4995637;28;20243;-70
2021/12/06 03:58:08;;;;;;;13.80;8.87;;;;;1.90;100690.00;;;;5024524;28;20651;-71
2021/12/06 04:00:55;;;;;;;15.30;8.97;;;;;1.90;100693.00;;;;5006552;28;20202;-70
2021/12/06 04:03:44;;;;;;;18.07;8.67;;;;;1.90;100709.00;;;;5022764;28;20205;-70
2021/12/06 04:06:30;;;;;;;19.63;9.17;;;;;1.80;100714.00;;;;5020991;28;20229;-70
2021/12/06 04:09:17;;;;;;;14.27;8.63;;;;;1.80;100710.00;;;;5023617;28;20228;-71
2021/12/06 04:12:04;;;;;;;16.73;9.23;;;;;1.80;100715.00;;;;5015685;28;20209;-69
2021/12/06 04:14:51;;;;;;;16.80;9.23;;;;;1.80;100714.00;;;;5014947;28;20284;-70
2021/12/06 04:17:39;;;;;;;16.37;10.47;;;;;1.80;100705.00;;;;5022774;28;20238;-71
2021/12/06 04:20:27;;;;;;;19.67;10.23;;;;;1.90;100709.00;;;;5020024;28;20265;-72
2021/12/06 04:23:14;;;;;;;21.23;11.03;;;;;2.00;100717.00;;;;5008536;28;20334;-70
2021/12/06 04:26:01;;;;;;;21.77;11.73;;;;;2.10;100719.00;;;;5004841;28;20345;-70
2021/12/06 04:28:57;;;;;;;23.17;11.33;;;;;2.20;100713.00;;;;4992571;28;20289;-71
2021/12/06 04:31:46;;;;;;;26.10;11.77;;;;;2.40;100723.00;;;;4999965;28;20238;-71
2021/12/06 04:34:32;;;;;;;33.87;14.27;;;;;2.40;100724.00;;;;5008342;28;20288;-72
2021/12/06 04:37:20;;;;;;;28.87;13.23;;;;;2.50;100722.00;;;;5022398;28;20225;-70
2021/12/06 04:40:08;;;;;;;31.40;14.00;;;;;2.50;100701.00;;;;5017736;28;20225;-72
2021/12/06 04:42:55;;;;;;;29.60;14.00;;;;;2.60;100726.00;;;;5011939;28;20302;-71
2021/12/06 04:45:42;;;;;;;42.77;15.33;;;;;2.70;100732.00;;;;5021972;28;20332;-71
2021/12/06 04:48:28;;;;;;;33.47;13.67;;;;;2.70;100723.00;;;;5019243;28;20753;-71
2021/12/06 04:51:14;;;;;;;36.83;14.83;;;;;2.80;100741.00;;;;5021082;28;20736;-71
2021/12/06 04:54:02;;;;;;;39.93;16.80;;;;;3.00;100756.00;;;;5004484;28;20273;-71
2021/12/06 04:56:52;;;;;;;45.03;15.77;;;;;3.00;100759.00;;;;5015586;28;20231;-73
2021/12/06 04:59:43;;;;;;;39.03;16.63;;;;;3.10;100750.00;;;;5022884;28;20725;-72
2021/12/06 05:02:34;;;;;;;44.73;16.97;;;;;3.10;100764.00;;;;5017337;28;20338;-72
2021/12/06 05:05:25;;;;;;;37.10;15.87;;;;;3.10;100758.00;;;;5017811;28;20709;-73
2021/12/06 05:08:16;;;;;;;41.33;16.23;;;;;3.10;100761.00;;;;5021270;28;20338;-72
2021/12/06 05:11:06;;;;;;;35.77;16.17;;;;;3.20;100767.00;;;;5017559;28;20221;-72
2021/12/06 05:13:53;;;;;;;38.57;17.10;;;;;3.20;100763.00;;;;5007735;28;20201;-72
2021/12/06 05:16:44;;;;;;;34.63;15.53;;;;;3.20;100771.00;;;;5005777;28;20225;-72
2021/12/06 05:19:30;;;;;;;46.80;16.47;;;;;3.10;100757.00;;;;5019038;28;20353;-72
2021/12/06 05:22:21;;;;;;;40.87;16.93;;;;;3.20;100781.00;;;;5015912;28;20385;-71
2021/12/06 05:25:11;;;;;;;44.23;17.47;;;;;3.20;100787.00;;;;5016716;28;20309;-71
2021/12/06 05:27:59;;;;;;;39.87;16.63;;;;;3.30;100788.00;;;;5011390;28;20599;-72
2021/12/06 05:30:45;;;;;;;48.23;17.90;;;;;3.40;100785.00;;;;5010044;28;20221;-72
2021/12/06 05:33:32;;;;;;;47.33;16.73;;;;;3.30;100796.00;;;;5015257;28;20343;-72
2021/12/06 05:36:19;;;;;;;47.07;18.23;;;;;3.30;100793.00;;;;5016257;28;20704;-71
2021/12/06 05:39:07;;;;;;;38.40;17.60;;;;;3.30;100797.00;;;;5020923;28;20769;-70
2021/12/06 05:41:53;;;;;;;45.70;17.53;;;;;3.30;100801.00;;;;5011039;28;20223;-71
2021/12/06 05:44:41;;;;;;;48.87;18.60;;;;;3.40;100800.00;;;;5007840;28;20231;-72
2021/12/06 05:47:28;;;;;;;45.47;16.93;;;;;3.30;100796.00;;;;5021765;28;20233;-72
2021/12/06 05:50:16;;;;;;;49.13;19.43;;;;;3.30;100797.00;;;;5008507;28;20308;-72
2021/12/06 05:53:04;;;;;;;45.00;16.53;;;;;3.40;100800.00;;;;5011722;28;20301;-72
2021/12/06 05:55:51;;;;;;;48.37;19.07;;;;;3.40;100802.00;;;;5004319;28;20365;-71
2021/12/06 05:58:38;;;;;;;53.17;20.27;;;;;3.40;100787.00;;;;5016670;28;20290;-71
2021/12/06 06:01:29;;;;;;;45.63;18.83;;;;;3.30;100797.00;;;;5019186;28;20217;-71
2021/12/06 06:04:16;;;;;;;43.40;19.30;;;;;3.30;100805.00;;;;5019508;28;20209;-71
2021/12/06 06:07:04;;;;;;;57.77;18.30;;;;;3.50;100808.00;;;;5011240;28;20222;-72
2021/12/06 06:09:50;;;;;;;47.33;17.70;;;;;3.40;100810.00;;;;5010262;28;20205;-74
2021/12/06 06:12:36;;;;;;;55.17;18.50;;;;;3.40;100802.00;;;;5013137;28;20233;-71
2021/12/06 06:15:22;;;;;;;56.37;18.53;;;;;3.50;100822.00;;;;5002931;28;20594;-72
2021/12/06 06:18:10;;;;;;;53.90;19.27;;;;;3.40;100825.00;;;;5013918;28;20276;-72
2021/12/06 06:20:57;;;;;;;54.47;20.13;;;;;3.40;100829.00;;;;5009116;28;20413;-72
2021/12/06 06:23:46;;;;;;;51.53;19.97;;;;;3.40;100844.00;;;;4998871;28;20206;-72
2021/12/06 06:26:32;;;;;;;47.97;18.93;;;;;3.40;100851.00;;;;5017446;28;20574;-71
2021/12/06 06:29:19;;;;;;;53.90;19.77;;;;;3.40;100829.00;;;;5018666;28;20719;-72
2021/12/06 06:32:07;;;;;;;57.77;18.83;;;;;3.50;100832.00;;;;5020264;28;20324;-72
2021/12/06 06:34:55;;;;;;;53.93;19.27;;;;;3.40;100830.00;;;;4996699;28;20210;-72
2021/12/06 06:37:43;;;;;;;47.83;19.03;;;;;3.50;100835.00;;;;5009410;28;20225;-72
2021/12/06 06:40:29;;;;;;;52.07;19.63;;;;;3.40;100834.00;;;;4997629;28;20290;-73
2021/12/06 06:43:16;;;;;;;52.00;18.60;;;;;3.40;100835.00;;;;5002101;28;20217;-73
2021/12/06 06:46:03;;;;;;;54.93;19.37;;;;;3.40;100843.00;;;;5002710;28;20234;-72
2021/12/06 06:48:49;;;;;;;51.47;18.57;;;;;3.30;100844.00;;;;5013630;28;20311;-72
2021/12/06 06:51:38;;;;;;;54.10;19.37;;;;;3.30;100847.00;;;;5018328;28;20757;-72
2021/12/06 06:54:24;;;;;;;50.50;18.30;;;;;3.40;100857.00;;;;5017127;28;20336;-71
2021/12/06 06:57:11;;;;;;;46.17;17.27;;;;;3.40;100836.00;;;;5016616;28;20301;-69
2021/12/06 06:59:57;;;;;;;46.53;17.87;;;;;3.30;100844.00;;;;5014834;28;20288;-69
2021/12/06 07:02:44;;;;;;;47.67;17.10;;;;;3.40;100844.00;;;;5002509;28;20303;-69
2021/12/06 07:05:30;;;;;;;49.77;17.77;;;;;3.40;100835.00;;;;5021690;28;20285;-69
2021/12/06 07:08:18;;;;;;;44.53;17.30;;;;;3.30;100834.00;;;;5023729;28;20344;-69
2021/12/06 07:11:05;;;;;;;45.47;17.03;;;;;3.40;100828.00;;;;5006156;28;20226;-70
2021/12/06 07:13:52;;;;;;;53.17;17.13;;;;;3.40;100829.00;;;;5016843;28;20211;-70
2021/12/06 07:16:39;;;;;;;58.53;18.50;;;;;3.40;100815.00;;;;5022403;28;20357;-70
2021/12/06 07:19:25;;;;;;;58.13;18.67;;;;;3.40;100831.00;;;;5022934;28;20977;-70
2021/12/06 07:22:15;;;;;;;56.37;18.37;;;;;3.40;100832.00;;;;5023378;28;20220;-70
2021/12/06 07:25:04;;;;;;;56.37;19.63;;;;;3.20;100823.00;;;;5018340;28;20209;-69
2021/12/06 07:27:52;;;;;;;50.13;19.33;;;;;3.30;100847.00;;;;5014721;28;20226;-69
2021/12/06 07:30:39;;;;;;;70.13;22.80;;;;;3.30;100861.00;;;;5022670;28;20210;-69
2021/12/06 07:33:26;;;;;;;49.83;18.30;;;;;3.30;100850.00;;;;5010717;28;20297;-70
2021/12/06 07:36:14;;;;;;;54.07;18.87;;;;;3.30;100853.00;;;;5015699;28;20258;-70
2021/12/06 07:39:00;;;;;;;63.10;19.77;;;;;3.30;100825.00;;;;5013548;28;20243;-69
2021/12/06 07:41:48;;;;;;;55.00;20.07;;;;;3.30;100869.00;;;;5024108;28;20204;-69
2021/12/06 07:44:34;;;;;;;67.60;23.83;;;;;3.40;100870.00;;;;5022174;28;20205;-69
2021/12/06 07:47:25;;;;;;;52.53;18.73;;;;;3.50;100858.00;;;;5022270;28;20675;-71
2021/12/06 07:50:14;;;;;;;60.27;20.13;;;;;3.40;100866.00;;;;5008676;28;20207;-70
2021/12/06 07:53:06;;;;;;;54.70;20.50;;;;;3.40;100862.00;;;;5014329;28;20772;-70
2021/12/06 07:55:52;;;;;;;62.50;21.53;;;;;3.40;100859.00;;;;5003720;28;20232;-72
2021/12/06 07:58:40;;;;;;;57.87;20.30;;;;;3.40;100862.00;;;;5013029;28;20213;-73
2021/12/06 08:01:26;;;;;;;62.23;19.73;;;;;3.40;100852.00;;;;5018316;28;20213;-71
2021/12/06 08:04:13;;;;;;;60.63;19.37;;;;;3.60;100850.00;;;;5022417;28;20205;-73
2021/12/06 08:06:59;;;;;;;63.73;19.90;;;;;3.50;100852.00;;;;5012461;28;20308;-71
2021/12/06 08:09:48;;;;;;;57.23;19.07;;;;;3.50;100845.00;;;;5011291;28;20751;-72
2021/12/06 08:12:35;;;;;;;65.93;20.50;;;;;3.60;100851.00;;;;5019502;28;20227;-73
2021/12/06 08:15:23;;;;;;;58.27;20.87;;;;;3.60;100857.00;;;;5016048;28;20793;-71
2021/12/06 08:18:09;;;;;;;52.40;18.77;;;;;3.60;100850.00;;;;5015758;28;20214;-72
2021/12/06 08:20:56;;;;;;;43.03;17.10;;;;;3.50;100858.00;;;;5010036;28;20264;-72
2021/12/06 08:23:43;;;;;;;49.57;18.57;;;;;3.50;100855.00;;;;5022170;28;20209;-72
2021/12/06 08:26:32;;;;;;;43.83;17.47;;;;;3.60;100858.00;;;;5018855;28;20233;-72
2021/12/06 08:29:18;;;;;;;44.87;18.97;;;;;3.60;100862.00;;;;5020772;28;20212;-72
2021/12/06 08:32:07;;;;;;;55.67;20.57;;;;;3.50;100851.00;;;;5021565;28;20225;-73
2021/12/06 08:34:54;;;;;;;55.97;20.53;;;;;3.50;100847.00;;;;5012021;28;20689;-73
2021/12/06 08:37:40;;;;;;;59.30;20.67;;;;;3.40;100852.00;;;;5021951;28;20241;-72
2021/12/06 08:40:29;;;;;;;55.93;21.00;;;;;3.40;100875.00;;;;5024136;28;20217;-73
2021/12/06 08:43:17;;;;;;;60.23;21.43;;;;;3.40;100864.00;;;;5018019;28;20218;-71
2021/12/06 08:46:07;;;;;;;60.57;22.87;;;;;3.70;100870.00;;;;5012835;28;20234;-72
2021/12/06 08:48:56;;;;;;;62.73;22.60;;;;;3.60;100866.00;;;;5005891;28;20202;-72
2021/12/06 08:51:45;;;;;;;61.67;22.30;;;;;3.80;100865.00;;;;5017543;28;20209;-73
2021/12/06 08:54:31;;;;;;;59.33;22.37;;;;;3.80;100867.00;;;;5014819;28;20840;-74
2021/12/06 08:57:18;;;;;;;62.00;23.27;;;;;3.80;100857.00;;;;5008627;28;20249;-72
2021/12/06 09:00:07;;;;;;;62.30;22.37;;;;;3.70;100860.00;;;;5013149;28;20269;-70
2021/12/06 09:02:53;;;;;;;67.50;23.97;;;;;3.60;100866.00;;;;5011233;28;20233;-71
2021/12/06 09:05:45;;;;;;;59.50;22.30;;;;;3.50;100851.00;;;;5020770;28;20206;-70
2021/12/06 09:08:31;;;;;;;67.90;24.67;;;;;3.50;100855.00;;;;5015879;28;20228;-70
2021/12/06 09:11:18;;;;;;;64.30;24.43;;;;;3.60;100864.00;;;;5018797;28;20303;-70
2021/12/06 09:14:05;;;;;;;67.50;24.17;;;;;3.60;100867.00;;;;5010697;28;20221;-67
2021/12/06 09:16:52;;;;;;;78.43;26.27;;;;;3.70;100865.00;;;;5018728;28;20257;-70
2021/12/06 09:19:39;;;;;;;63.07;23.43;;;;;3.70;100863.00;;;;5013478;28;20299;-70
2021/12/06 09:22:26;;;;;;;63.50;23.90;;;;;3.90;100860.00;;;;5016751;28;20209;-69
2021/12/06 09:25:13;;;;;;;62.00;22.97;;;;;3.90;100854.00;;;;5011914;28;20206;-69
2021/12/06 09:28:02;;;;;;;70.07;22.87;;;;;3.80;100851.00;;;;4996605;28;20292;-71
2021/12/06 09:30:48;;;;;;;66.37;24.83;;;;;3.80;100859.00;;;;4999939;28;20216;-71
2021/12/06 09:33:36;;;;;;;62.27;24.73;;;;;3.90;100862.00;;;;4997415;28;20313;-70
2021/12/06 09:36:22;;;;;;;60.50;23.80;;;;;4.00;100861.00;;;;4999052;28;20254;-70
2021/12/06 09:39:12;;;;;;;63.53;23.53;;;;;3.90;100850.00;;;;4996141;28;20215;-69
2021/12/06 09:41:59;;;;;;;51.73;21.30;;;;;3.90;100853.00;;;;5000113;28;20236;-69
2021/12/06 09:44:45;;;;;;;51.60;20.10;;;;;3.90;100856.00;;;;5003526;28;20219;-70
2021/12/06 09:47:32;;;;;;;40.20;19.87;;;;;3.90;100849.00;;;;5023945;28;20960;-70
2021/12/06 09:50:21;;;;;;;43.97;19.17;;;;;3.70;100850.00;;;;5010051;28;20231;-68
2021/12/06 09:53:10;;;;;;;39.43;18.00;;;;;3.60;100855.00;;;;5018767;28;20221;-69
2021/12/06 09:56:01;;;;;;;45.13;19.13;;;;;3.70;100863.00;;;;5013927;28;20233;-70
2021/12/06 09:58:47;;;;;;;41.20;19.30;;;;;3.60;100863.00;;;;5011310;28;20283;-72
2021/12/06 10:01:36;;;;;;;39.03;19.20;;;;;3.60;100860.00;;;;5022462;28;20219;-73
2021/12/06 10:04:26;;;;;;;40.90;18.87;;;;;3.60;100870.00;;;;4997345;28;20343;-74
2021/12/06 10:07:13;;;;;;;41.77;19.43;;;;;3.60;100876.00;;;;4998932;28;20226;-73
2021/12/06 10:10:00;;;;;;;43.63;19.27;;;;;3.60;100877.00;;;;4994207;28;20693;-74
2021/12/06 10:12:52;;;;;;;43.43;23.60;;;;;3.80;100869.00;;;;4992828;28;20225;-74
2021/12/06 10:15:41;;;;;;;45.73;24.67;;;;;3.80;100872.00;;;;5007092;28;20211;-72
2021/12/06 10:18:27;;;;;;;44.93;19.97;;;;;3.90;100869.00;;;;5012153;28;20306;-72
2021/12/06 10:21:15;;;;;;;45.30;21.30;;;;;3.80;100862.00;;;;5015676;28;20304;-70
2021/12/06 10:24:01;;;;;;;41.43;18.90;;;;;3.70;100859.00;;;;5010235;28;20205;-71
2021/12/06 10:26:48;;;;;;;41.10;19.67;;;;;3.70;100863.00;;;;4998283;28;20377;-71
2021/12/06 10:29:43;;;;;;;37.60;18.07;;;;;3.70;100859.00;;;;4998305;28;20243;-72
2021/12/06 10:32:32;;;;;;;39.67;19.90;;;;;3.70;100852.00;;;;5003562;28;20225;-72
2021/12/06 10:35:18;;;;;;;41.80;21.60;;;;;3.80;100855.00;;;;5000070;28;20213;-71
2021/12/06 10:38:06;;;;;;;43.27;19.10;;;;;3.80;100856.00;;;;5001394;28;20239;-71
2021/12/06 10:40:56;;;;;;;39.97;19.43;;;;;3.80;100854.00;;;;5006395;28;20206;-72
2021/12/06 10:43:53;;;;;;;45.10;20.57;;;;;3.90;100844.00;;;;5002292;28;20779;-72
2021/12/06 10:46:46;;;;;;;37.43;19.33;;;;;3.80;100844.00;;;;5006279;28;20797;-71
2021/12/06 10:49:32;;;;;;;43.00;21.43;;;;;3.90;100845.00;;;;5003758;28;20209;-72
2021/12/06 10:52:26;;;;;;;45.27;20.23;;;;;4.00;100843.00;;;;5013791;28;20264;-71
2021/12/06 10:55:13;;;;;;;43.97;20.33;;;;;4.00;100844.00;;;;5015184;28;20729;-71
2021/12/06 10:58:01;;;;;;;47.67;21.10;;;;;3.90;100828.00;;;;5009940;28;20206;-71
2021/12/06 11:00:51;;;;;;;42.10;20.40;;;;;4.00;100821.00;;;;5004334;28;20304;-71
2021/12/06 11:03:44;;;;;;;44.53;22.10;;;;;4.10;100822.00;;;;5007032;28;20257;-71
2021/12/06 11:06:34;;;;;;;48.80;22.77;;;;;4.20;100821.00;;;;5014125;28;20307;-72
2021/12/06 11:09:23;;;;;;;49.73;21.70;;;;;4.20;100805.00;;;;5006925;28;20203;-72
2021/12/06 11:12:11;;;;;;;41.97;21.57;;;;;4.20;100803.00;;;;5003013;28;20292;-72
2021/12/06 11:14:57;;;;;;;49.00;21.53;;;;;4.30;100800.00;;;;5004553;28;20312;-71
2021/12/06 11:17:43;;;;;;;57.57;23.17;;;;;4.40;100796.00;;;;4995355;28;20358;-71
2021/12/06 11:20:31;;;;;;;55.03;23.50;;;;;4.40;100793.00;;;;4997157;28;20557;-71
2021/12/06 11:23:18;;;;;;;43.60;21.53;;;;;4.40;100802.00;;;;4993906;28;20214;-69
2021/12/06 11:26:04;;;;;;;45.87;22.03;;;;;4.50;100800.00;;;;4998957;28;20238;-68
2021/12/06 11:28:51;;;;;;;46.97;21.57;;;;;4.60;100784.00;;;;4995898;28;20278;-69
2021/12/06 11:31:39;;;;;;;48.50;20.80;;;;;4.60;100792.00;;;;5003280;28;20229;-70
2021/12/06 11:34:30;;;;;;;43.30;21.07;;;;;4.80;100784.00;;;;5002523;28;20226;-72
2021/12/06 11:37:22;;;;;;;46.10;21.77;;;;;4.70;100783.00;;;;5012721;28;20238;-71
2021/12/06 11:40:13;;;;;;;47.27;20.20;;;;;4.70;100758.00;;;;5001893;28;20207;-72
2021/12/06 11:43:03;;;;;;;44.63;21.50;;;;;4.60;100750.00;;;;5011728;28;20252;-71
2021/12/06 11:45:52;;;;;;;47.70;21.60;;;;;4.50;100755.00;;;;5012417;28;20232;-72
2021/12/06 11:48:39;;;;;;;57.87;23.13;;;;;4.50;100759.00;;;;5003302;28;20289;-70
2021/12/06 11:51:27;;;;;;;55.37;23.07;;;;;4.60;100749.00;;;;5001935;28;20888;-71
2021/12/06 11:54:15;;;;;;;52.93;22.37;;;;;4.70;100753.00;;;;5000714;28;20230;-71
2021/12/06 11:57:10;;;;;;;52.47;22.17;;;;;4.80;100762.00;;;;5002624;28;20236;-71
2021/12/06 12:00:02;;;;;;;49.53;22.27;;;;;4.90;100760.00;;;;5000500;28;20221;-71
2021/12/06 12:02:52;;;;;;;63.37;24.57;;;;;4.80;100758.00;;;;5002128;28;20217;-73
2021/12/06 12:05:40;;;;;;;52.03;22.53;;;;;4.80;100752.00;;;;5003161;28;20370;-73
2021/12/06 12:08:31;;;;;;;51.30;22.67;;;;;4.70;100757.00;;;;5024203;28;20580;-73
2021/12/06 12:11:18;;;;;;;50.80;22.53;;;;;4.70;100750.00;;;;5012159;28;20207;-72
2021/12/06 12:14:10;;;;;;;57.77;24.33;;;;;4.80;100749.00;;;;5015765;28;20605;-72
2021/12/06 12:16:57;;;;;;;59.63;24.10;;;;;4.70;100743.00;;;;5014990;28;20352;-72
2021/12/06 12:19:45;;;;;;;54.83;23.47;;;;;4.60;100748.00;;;;5020791;28;20287;-72
2021/12/06 12:22:31;;;;;;;51.47;22.43;;;;;4.60;100750.00;;;;5009260;28;20214;-72
2021/12/06 12:25:26;;;;;;;51.40;22.17;;;;;4.70;100747.00;;;;4998230;28;20217;-71
2021/12/06 12:28:21;;;;;;;48.67;20.63;;;;;4.70;100739.00;;;;4994649;28;20698;-74
2021/12/06 12:31:11;;;;;;;52.07;21.60;;;;;4.70;100734.00;;;;5003400;28;20254;-72
2021/12/06 12:33:57;;;;;;;48.17;21.77;;;;;4.60;100732.00;;;;4998904;28;20227;-71
2021/12/06 12:36:44;;;;;;;54.20;22.40;;;;;4.60;100737.00;;;;4993929;28;20231;-71
2021/12/06 12:39:31;;;;;;;57.60;23.67;;;;;4.60;100733.00;;;;5007456;28;20206;-68
2021/12/06 12:42:18;;;;;;;57.17;24.23;;;;;4.60;100733.00;;;;5013315;28;20279;-71
2021/12/06 12:45:07;;;;;;;52.77;22.17;;;;;4.50;100736.00;;;;5013304;28;20341;-70
2021/12/06 12:47:56;;;;;;;65.33;23.50;;;;;4.60;100725.00;;;;4993089;28;20250;-70
2021/12/06 12:50:43;;;;;;;55.30;23.50;;;;;4.60;100720.00;;;;5000796;28;20773;-69
2021/12/06 12:53:45;;;;;;;62.50;23.97;;;;;4.60;100726.00;;;;5001922;28;20258;-70
2021/12/06 12:56:35;;;;;;;58.77;24.03;;;;;4.50;100720.00;;;;5014935;28;20234;-71
2021/12/06 12:59:27;;;;;;;59.77;23.83;;;;;4.50;100716.00;;;;5022642;28;20213;-70
2021/12/06 13:02:30;;;;;;;60.40;22.47;;;;;4.60;100703.00;;;;5009616;28;20661;-71
2021/12/06 13:05:27;;;;;;;65.67;24.53;;;;;4.70;100719.00;;;;5011945;28;20268;-72
2021/12/06 13:08:13;;;;;;;61.83;25.93;;;;;4.80;100704.00;;;;5016849;28;20262;-72
2021/12/06 13:10:59;;;;;;;56.97;24.20;;;;;4.90;100693.00;;;;5015952;28;20236;-69
2021/12/06 13:13:50;;;;;;;65.33;24.30;;;;;4.80;100695.00;;;;5012954;28;20311;-71
2021/12/06 13:16:48;;;;;;;52.70;23.00;;;;;4.80;100685.00;;;;5015811;28;20319;-72
2021/12/06 13:19:42;;;;;;;49.23;20.63;;;;;4.80;100680.00;;;;5014580;28;20249;-72
2021/12/06 13:22:31;;;;;;;49.00;21.27;;;;;4.70;100673.00;;;;5016544;28;20213;-72
2021/12/06 13:25:19;;;;;;;51.17;22.20;;;;;4.60;100675.00;;;;5007005;28;20218;-68
2021/12/06 13:28:10;;;;;;;52.50;22.23;;;;;4.80;100658.00;;;;5012666;28;20580;-72
2021/12/06 13:31:03;;;;;;;48.47;21.07;;;;;4.50;100655.00;;;;5014927;28;20209;-70
2021/12/06 13:33:50;;;;;;;52.13;21.93;;;;;4.60;100652.00;;;;5021153;28;20202;-68
2021/12/06 13:36:46;;;;;;;47.43;20.37;;;;;4.50;100647.00;;;;5015370;28;20237;-70
2021/12/06 13:39:39;;;;;;;57.50;22.10;;;;;4.50;100615.00;;;;5019349;28;20209;-71
2021/12/06 13:42:39;;;;;;;57.30;20.47;;;;;4.60;100643.00;;;;5016668;28;20377;-70
2021/12/06 13:45:28;;;;;;;49.00;21.33;;;;;4.70;100634.00;;;;5015233;28;20301;-71
2021/12/06 13:48:19;;;;;;;46.70;20.67;;;;;4.50;100635.00;;;;5020733;28;20264;-71
2021/12/06 13:51:28;;;;;;;50.23;21.10;;;;;4.40;100643.00;;;;5015609;28;20327;-71
2021/12/06 13:54:18;;;;;;;46.50;21.37;;;;;4.50;100627.00;;;;5006340;28;20234;-72